createdAt,value
2019-05-10T00:00:16.591Z,5.20
2019-05-10T00:03:03.704Z,4.00
2019-05-10T00:05:50.892Z,3.30
2019-05-10T00:08:48.292Z,4.80
2019-05-10T00:11:29.936Z,3.47
2019-05-10T00:14:06.766Z,3.23
2019-05-10T00:16:36.133Z,4.00
2019-05-10T00:19:09.977Z,3.30
2019-05-10T00:21:40.361Z,2.90
2019-05-10T00:24:10.501Z,2.73
2019-05-10T00:26:43.655Z,2.40
2019-05-10T00:29:12.943Z,3.70
2019-05-10T00:31:42.119Z,2.93
2019-05-10T00:34:11.357Z,2.70
2019-05-10T00:36:41.750Z,3.20
2019-05-10T00:39:10.985Z,4.40
2019-05-10T00:41:40.298Z,2.83
2019-05-10T00:44:09.586Z,4.53
2019-05-10T00:46:39.057Z,3.20
2019-05-10T00:49:08.330Z,3.20
2019-05-10T00:51:37.872Z,2.90
2019-05-10T00:54:07.166Z,3.30
2019-05-10T00:56:36.440Z,2.80
2019-05-10T00:59:05.767Z,3.47
2019-05-10T01:01:35.126Z,2.93
2019-05-10T01:04:04.381Z,2.40
2019-05-10T01:06:33.558Z,2.53
2019-05-10T01:09:02.856Z,2.13
2019-05-10T01:11:32.084Z,2.00
2019-05-10T01:14:01.422Z,3.40
2019-05-10T01:16:30.790Z,2.47
2019-05-10T01:19:00.094Z,2.70
2019-05-10T01:21:29.294Z,2.67
2019-05-10T01:23:59.939Z,2.00
2019-05-10T01:26:29.170Z,4.10
2019-05-10T01:29:00.455Z,1.72
2019-05-10T01:31:30.466Z,2.00
2019-05-10T01:34:00.080Z,2.40
2019-05-10T01:36:29.293Z,2.10
2019-05-10T01:39:00.153Z,2.10
2019-05-10T01:41:29.332Z,3.00
2019-05-10T01:43:59.087Z,3.67
2019-05-10T01:46:28.427Z,3.03
2019-05-10T01:48:57.695Z,2.07
2019-05-10T01:51:28.024Z,2.90
2019-05-10T01:53:57.493Z,2.17
2019-05-10T01:56:26.704Z,2.73
2019-05-10T01:58:58.219Z,2.20
2019-05-10T02:01:27.494Z,3.20
2019-05-10T02:03:56.775Z,2.97
2019-05-10T02:06:26.127Z,2.47
2019-05-10T02:09:15.993Z,2.67
2019-05-10T02:11:45.280Z,2.40
2019-05-10T02:14:14.529Z,2.80
2019-05-10T02:16:43.811Z,3.10
2019-05-10T02:19:13.089Z,3.20
2019-05-10T02:21:42.485Z,2.63
2019-05-10T02:27:36.495Z,3.20
2019-05-10T02:30:07.147Z,4.83
2019-05-10T02:32:36.641Z,3.40
2019-05-10T02:35:06.297Z,3.80
2019-05-10T02:37:35.817Z,4.20
2019-05-10T02:40:05.724Z,4.70
2019-05-10T02:42:35.181Z,4.70
2019-05-10T02:45:04.906Z,5.50
2019-05-10T02:47:34.232Z,4.40
2019-05-10T02:50:03.608Z,5.47
2019-05-10T02:52:33.048Z,5.97
2019-05-10T02:55:02.647Z,5.47
2019-05-10T02:57:32.133Z,5.00
2019-05-10T03:00:03.414Z,5.33
2019-05-10T03:02:33.541Z,6.30
2019-05-10T03:05:04.060Z,5.60
2019-05-10T03:07:37.403Z,5.67
2019-05-10T03:10:08.400Z,4.90
2019-05-10T03:12:40.365Z,4.83
2019-05-10T03:15:10.760Z,5.17
2019-05-10T03:17:41.605Z,4.90
2019-05-10T03:20:11.765Z,4.37
2019-05-10T03:22:44.337Z,5.73
2019-05-10T03:25:14.026Z,5.23
2019-05-10T03:27:43.722Z,4.80
2019-05-10T03:30:14.234Z,4.67
2019-05-10T03:32:43.588Z,4.60
2019-05-10T03:35:13.020Z,5.00
2019-05-10T03:37:42.351Z,4.77
2019-05-10T03:40:11.800Z,4.57
2019-05-10T03:42:41.646Z,5.13
2019-05-10T03:45:11.444Z,5.10
2019-05-10T03:47:40.978Z,4.30
2019-05-10T03:50:10.563Z,4.57
2019-05-10T03:52:39.860Z,5.10
2019-05-10T03:55:09.204Z,4.50
2019-05-10T03:57:38.468Z,5.43
2019-05-10T04:00:07.897Z,5.10
2019-05-10T04:02:37.353Z,5.23
2019-05-10T04:05:07.500Z,4.27
2019-05-10T04:07:36.810Z,5.07
2019-05-10T04:10:06.707Z,6.37
2019-05-10T04:12:36.010Z,4.53
2019-05-10T04:15:06.407Z,6.57
2019-05-10T04:17:36.910Z,6.07
2019-05-10T04:20:07.095Z,5.20
2019-05-10T04:22:36.290Z,4.80
2019-05-10T04:25:06.621Z,5.47
2019-05-10T04:27:36.052Z,5.13
2019-05-10T04:30:05.728Z,4.90
2019-05-10T04:32:44.059Z,5.33
2019-05-10T04:35:13.374Z,4.80
2019-05-10T04:37:42.801Z,7.53
2019-05-10T04:40:12.494Z,4.60
2019-05-10T04:43:02.819Z,4.33
2019-05-10T04:45:32.212Z,4.33
2019-05-10T04:48:01.667Z,5.03
2019-05-10T04:50:33.939Z,4.70
2019-05-10T04:53:31.985Z,4.53
2019-05-10T04:56:01.406Z,4.50
2019-05-10T04:58:31.204Z,5.10
2019-05-10T05:01:00.750Z,5.00
2019-05-10T05:03:30.143Z,4.90
2019-05-10T05:05:59.494Z,4.90
2019-05-10T05:08:34.512Z,4.40
2019-05-10T05:11:03.809Z,4.93
2019-05-10T05:13:33.089Z,5.33
2019-05-10T05:16:02.387Z,5.27
2019-05-10T05:18:31.677Z,5.20
2019-05-10T05:21:00.975Z,5.23
2019-05-10T05:23:30.291Z,7.20
2019-05-10T05:25:59.574Z,4.67
2019-05-10T05:28:29.104Z,4.70
2019-05-10T05:30:58.460Z,4.87
2019-05-10T05:33:27.794Z,3.90
2019-05-10T05:35:57.260Z,4.10
2019-05-10T05:38:26.733Z,5.17
2019-05-10T05:40:56.102Z,4.63
2019-05-10T05:43:25.464Z,4.40
2019-05-10T05:45:55.020Z,4.90
2019-05-10T05:48:38.433Z,4.20
2019-05-10T05:50:55.460Z,4.40
2019-05-10T05:53:24.737Z,4.50
2019-05-10T05:55:54.041Z,4.13
2019-05-10T05:58:27.369Z,6.50
2019-05-10T06:00:54.615Z,4.20
2019-05-10T06:03:27.943Z,4.03
2019-05-10T06:05:55.129Z,3.83
2019-05-10T06:08:25.102Z,4.17
2019-05-10T06:10:57.906Z,4.33
2019-05-10T06:13:30.173Z,6.93
2019-05-10T06:15:59.885Z,5.50
2019-05-10T06:18:27.458Z,4.10
2019-05-10T06:20:56.887Z,7.40
2019-05-10T06:23:29.070Z,4.00
2019-05-10T06:25:57.244Z,4.37
2019-05-10T06:28:50.748Z,5.00
2019-05-10T06:30:57.608Z,5.70
2019-05-10T06:33:26.962Z,5.13
2019-05-10T06:35:56.454Z,4.70
2019-05-10T06:38:25.736Z,5.50
2019-05-10T06:40:55.069Z,4.53
2019-05-10T06:43:24.461Z,4.43
2019-05-10T06:45:54.067Z,5.37
2019-05-10T06:48:27.452Z,5.13
2019-05-10T06:50:54.555Z,6.03
2019-05-10T06:53:23.783Z,5.87
2019-05-10T06:55:53.159Z,6.10
2019-05-10T06:58:22.440Z,5.27
2019-05-10T07:00:51.628Z,5.43
2019-05-10T07:03:20.873Z,6.33
2019-05-10T07:05:50.256Z,5.40
2019-05-10T07:08:20.490Z,5.33
2019-05-10T07:10:50.025Z,5.03
2019-05-10T07:13:19.393Z,5.70
2019-05-10T07:15:51.256Z,5.47
2019-05-10T07:18:22.526Z,6.20
2019-05-10T07:20:51.368Z,5.93
2019-05-10T07:23:20.548Z,7.47
2019-05-10T07:25:49.874Z,6.20
2019-05-10T07:28:19.059Z,5.30
2019-05-10T07:30:48.278Z,5.93
2019-05-10T07:33:17.450Z,6.43
2019-05-10T07:35:46.787Z,5.70
2019-05-10T07:38:16.044Z,6.93
2019-05-10T07:40:45.406Z,5.13
2019-05-10T07:43:24.993Z,5.90
2019-05-10T07:45:45.657Z,7.17
2019-05-10T07:48:14.944Z,6.37
2019-05-10T07:50:49.267Z,5.53
2019-05-10T07:53:16.376Z,7.07
2019-05-10T07:55:46.231Z,7.10
2019-05-10T07:58:15.533Z,5.57
2019-05-10T08:00:46.674Z,5.47
2019-05-10T08:03:17.667Z,6.13
2019-05-10T08:05:54.901Z,7.00
2019-05-10T08:08:19.221Z,5.60
2019-05-10T08:10:48.856Z,8.07
2019-05-10T08:13:23.328Z,6.10
2019-05-10T08:15:49.183Z,8.67
2019-05-10T08:18:23.513Z,7.70
2019-05-10T08:20:56.668Z,4.97
2019-05-10T08:23:23.797Z,6.77
2019-05-10T08:25:53.345Z,6.13
2019-05-10T08:28:22.917Z,7.40
2019-05-10T08:30:58.434Z,7.30
2019-05-10T08:33:23.360Z,6.10
2019-05-10T08:36:00.652Z,8.77
2019-05-10T08:38:23.629Z,6.00
2019-05-10T08:40:53.057Z,5.13
2019-05-10T08:43:24.535Z,5.80
2019-05-10T08:45:53.490Z,4.60
2019-05-10T08:48:23.436Z,6.27
2019-05-10T08:50:57.155Z,4.50
2019-05-10T08:53:23.844Z,4.50
2019-05-10T08:55:53.166Z,4.47
2019-05-10T08:58:31.498Z,4.90
2019-05-10T09:01:10.235Z,4.87
2019-05-10T09:03:24.318Z,4.93
2019-05-10T09:05:53.548Z,3.83
2019-05-10T09:08:27.226Z,6.13
2019-05-10T09:10:53.880Z,4.43
2019-05-10T09:13:23.082Z,3.90
2019-05-10T09:15:56.829Z,3.93
2019-05-10T09:18:23.545Z,3.60
2019-05-10T09:20:54.284Z,2.60
2019-05-10T09:23:24.934Z,3.37
2019-05-10T09:26:03.597Z,3.53
2019-05-10T09:28:28.235Z,2.90
2019-05-10T09:31:06.725Z,12.40
2019-05-10T09:33:28.998Z,5.50
2019-05-10T09:35:59.366Z,2.70
2019-05-10T09:38:34.775Z,3.80
2019-05-10T09:41:02.278Z,5.63
2019-05-10T09:43:31.930Z,3.23
2019-05-10T09:46:02.697Z,1.90
2019-05-10T09:48:33.305Z,3.10
2019-05-10T09:51:04.141Z,2.17
2019-05-10T09:53:34.002Z,2.10
2019-05-10T09:56:03.451Z,2.30
2019-05-10T09:58:32.926Z,3.07
2019-05-10T10:01:13.737Z,2.17
2019-05-10T10:03:39.915Z,3.00
2019-05-10T10:06:07.653Z,3.90
2019-05-10T10:08:35.013Z,2.03
2019-05-10T10:11:14.108Z,2.00
2019-05-10T10:13:42.678Z,3.33
2019-05-10T10:16:10.181Z,2.23
2019-05-10T10:18:37.286Z,4.87
2019-05-10T10:21:06.723Z,2.27
2019-05-10T10:23:37.799Z,2.00
2019-05-10T10:26:07.368Z,1.93
2019-05-10T10:28:39.506Z,2.17
2019-05-10T10:31:08.498Z,4.70
2019-05-10T10:33:38.108Z,3.23
2019-05-10T10:36:10.387Z,2.20
2019-05-10T10:38:45.186Z,2.70
2019-05-10T10:41:09.261Z,1.53
2019-05-10T10:43:38.576Z,2.10
2019-05-10T10:46:12.109Z,4.00
2019-05-10T10:48:43.542Z,2.40
2019-05-10T10:51:09.939Z,2.00
2019-05-10T10:53:39.240Z,1.97
2019-05-10T10:56:08.747Z,1.90
2019-05-10T10:58:38.729Z,2.00
2019-05-10T11:01:20.061Z,1.87
2019-05-10T11:03:40.894Z,2.80
2019-05-10T11:06:15.376Z,3.30
2019-05-10T11:08:44.606Z,2.47
2019-05-10T11:11:14.084Z,12.00
2019-05-10T11:13:45.826Z,2.73
2019-05-10T11:16:21.663Z,3.10
2019-05-10T11:18:51.941Z,2.20
2019-05-10T11:21:23.410Z,3.73
2019-05-10T11:23:52.673Z,2.17
2019-05-10T11:26:26.733Z,4.60
2019-05-10T11:28:53.340Z,4.13
2019-05-10T11:31:31.209Z,1.77
2019-05-10T11:34:01.608Z,1.60
2019-05-10T11:36:31.365Z,3.87
2019-05-10T11:39:01.652Z,2.37
2019-05-10T11:41:31.668Z,2.80
2019-05-10T11:44:05.503Z,2.00
2019-05-10T11:46:32.151Z,1.83
2019-05-10T11:49:01.904Z,3.87
2019-05-10T11:51:31.801Z,2.10
2019-05-10T11:54:01.411Z,7.33
2019-05-10T11:56:32.325Z,2.27
2019-05-10T11:59:02.687Z,3.07
2019-05-10T12:01:32.150Z,5.30
2019-05-10T12:04:02.135Z,2.00
2019-05-10T12:06:32.648Z,3.60
2019-05-10T12:09:05.893Z,1.73
2019-05-10T12:11:40.784Z,1.57
2019-05-10T12:14:06.381Z,2.00
2019-05-10T12:16:35.810Z,1.87
2019-05-10T12:19:14.944Z,2.03
2019-05-10T12:21:39.615Z,3.10
2019-05-10T12:24:57.083Z,2.70
2019-05-10T12:27:21.903Z,1.47
2019-05-10T12:29:46.665Z,1.90
2019-05-10T12:32:13.763Z,1.80
2019-05-10T12:34:51.833Z,4.70
2019-05-10T12:37:20.237Z,1.50
2019-05-10T12:40:06.250Z,1.50
2019-05-10T12:42:27.768Z,1.57
2019-05-10T12:44:58.099Z,2.40
2019-05-10T12:47:27.667Z,2.60
2019-05-10T12:50:01.920Z,4.87
2019-05-10T12:52:28.876Z,2.47
2019-05-10T12:54:59.189Z,2.10
2019-05-10T12:57:28.816Z,1.80
2019-05-10T12:59:58.428Z,2.10
2019-05-10T13:02:28.927Z,3.07
2019-05-10T13:04:58.278Z,2.07
2019-05-10T13:07:27.919Z,1.80
2019-05-10T13:10:03.973Z,1.83
2019-05-10T13:12:30.787Z,1.67
2019-05-10T13:15:00.524Z,1.67
2019-05-10T13:17:44.107Z,3.43
2019-05-10T13:20:12.720Z,1.57
2019-05-10T13:22:42.228Z,3.00
2019-05-10T13:25:12.562Z,1.90
2019-05-10T13:27:42.881Z,4.70
2019-05-10T13:30:14.168Z,1.60
2019-05-10T13:32:43.477Z,1.87
2019-05-10T13:35:15.498Z,2.07
2019-05-10T13:37:45.925Z,2.30
2019-05-10T13:40:15.832Z,1.93
2019-05-10T13:42:45.994Z,1.60
2019-05-10T13:45:16.040Z,1.83
2019-05-10T13:47:45.487Z,3.20
2019-05-10T13:50:18.319Z,1.53
2019-05-10T13:52:49.002Z,1.60
2019-05-10T13:55:18.492Z,1.87
2019-05-10T13:57:48.233Z,1.43
2019-05-10T14:00:37.657Z,3.63
2019-05-10T14:03:11.617Z,1.40
2019-05-10T14:05:44.500Z,1.73
2019-05-10T14:08:13.877Z,2.03
2019-05-10T14:10:43.135Z,1.47
2019-05-10T14:13:16.464Z,1.43
2019-05-10T14:15:43.483Z,1.80
2019-05-10T14:18:18.969Z,2.47
2019-05-10T14:20:57.411Z,1.87
2019-05-10T14:23:28.968Z,2.10
2019-05-10T14:25:58.045Z,1.20
2019-05-10T14:28:39.488Z,3.43
2019-05-10T14:31:20.608Z,1.73
2019-05-10T14:34:14.791Z,5.10
2019-05-10T14:36:24.459Z,3.83
2019-05-10T14:38:58.958Z,2.83
2019-05-10T14:41:28.345Z,2.17
2019-05-10T14:43:58.641Z,2.27
2019-05-10T14:46:28.015Z,2.17
2019-05-10T14:49:08.919Z,1.83
2019-05-10T14:51:43.957Z,1.57
2019-05-10T14:54:09.067Z,2.13
2019-05-10T14:56:38.408Z,1.40
2019-05-10T14:59:07.767Z,1.60
2019-05-10T15:01:42.595Z,3.23
2019-05-10T15:04:08.385Z,2.80
2019-05-10T15:06:45.759Z,1.63
2019-05-10T15:09:21.730Z,1.70
2019-05-10T15:11:47.351Z,1.47
2019-05-10T15:14:16.788Z,1.40
2019-05-10T15:16:55.293Z,2.20
2019-05-10T15:19:30.776Z,1.50
2019-05-10T15:21:57.420Z,1.57
2019-05-10T15:24:27.280Z,1.50
2019-05-10T15:26:56.715Z,1.13
2019-05-10T15:29:26.145Z,1.40
2019-05-10T15:31:59.411Z,1.60
2019-05-10T15:34:28.847Z,1.73
2019-05-10T15:37:02.629Z,3.63
2019-05-10T15:39:30.500Z,3.07
2019-05-10T15:42:04.497Z,2.00
2019-05-10T15:45:15.501Z,2.43
2019-05-10T15:47:51.233Z,2.23
2019-05-10T15:50:16.814Z,2.00
2019-05-10T15:52:47.041Z,1.90
2019-05-10T15:55:24.405Z,1.90
2019-05-10T15:57:51.714Z,1.90
2019-05-10T16:00:24.796Z,2.07
2019-05-10T16:02:54.852Z,2.37
2019-05-10T16:05:42.101Z,2.53
2019-05-10T16:07:56.678Z,1.83
2019-05-10T16:10:28.395Z,1.60
2019-05-10T16:12:59.308Z,1.90
2019-05-10T16:15:28.765Z,2.13
2019-05-10T16:17:59.851Z,2.03
2019-05-10T16:20:31.622Z,1.83
2019-05-10T16:23:02.775Z,2.00
2019-05-10T16:25:41.122Z,2.10
2019-05-10T16:28:05.380Z,2.30
2019-05-10T16:30:42.837Z,2.00
2019-05-10T16:33:15.734Z,2.17
2019-05-10T16:35:44.178Z,2.50
2019-05-10T16:38:14.353Z,1.83
2019-05-10T16:40:44.656Z,2.50
2019-05-10T16:43:22.300Z,2.17
2019-05-10T16:45:54.019Z,2.40
2019-05-10T16:48:23.316Z,1.90
2019-05-10T16:50:53.899Z,1.70
2019-05-10T16:53:23.265Z,2.03
2019-05-10T16:55:52.679Z,1.90
2019-05-10T16:58:22.482Z,2.07
2019-05-10T17:00:51.947Z,1.80
2019-05-10T17:03:21.853Z,1.73
2019-05-10T17:05:53.912Z,2.23
2019-05-10T17:08:22.600Z,2.60
2019-05-10T17:10:52.126Z,3.73
2019-05-10T17:13:22.891Z,2.13
2019-05-10T17:15:52.233Z,2.23
2019-05-10T17:18:24.003Z,2.07
2019-05-10T17:20:58.793Z,1.47
2019-05-10T17:23:29.292Z,1.47
2019-05-10T17:26:05.638Z,1.40
2019-05-10T17:28:37.253Z,2.40
2019-05-10T17:31:07.634Z,2.67
2019-05-10T17:33:42.498Z,3.53
2019-05-10T17:36:14.500Z,2.20
2019-05-10T17:38:41.247Z,3.70
2019-05-10T17:41:11.615Z,2.47
2019-05-10T17:43:40.943Z,2.40
2019-05-10T17:46:12.781Z,2.37
2019-05-10T17:48:47.157Z,2.30
2019-05-10T17:51:13.362Z,2.27
2019-05-10T17:53:43.550Z,2.47
2019-05-10T17:56:12.852Z,3.40
2019-05-10T17:58:44.250Z,3.20
2019-05-10T18:01:16.290Z,3.30
2019-05-10T18:03:45.647Z,3.20
2019-05-10T18:06:23.806Z,3.30
2019-05-10T18:08:49.686Z,2.53
2019-05-10T18:11:20.774Z,2.80
2019-05-10T18:13:51.194Z,3.57
2019-05-10T18:16:20.600Z,2.27
2019-05-10T18:18:49.943Z,2.50
2019-05-10T18:21:22.184Z,3.27
2019-05-10T18:23:58.203Z,2.57
2019-05-10T18:26:25.067Z,2.67
2019-05-10T18:28:56.429Z,3.07
2019-05-10T18:31:40.691Z,3.10
2019-05-10T18:34:10.030Z,4.30
2019-05-10T18:36:51.989Z,2.67
2019-05-10T18:39:18.492Z,3.23
2019-05-10T18:41:48.379Z,5.43
2019-05-10T18:44:17.847Z,5.07
2019-05-10T18:46:47.121Z,9.00
2019-05-10T18:49:16.482Z,6.27
2019-05-10T18:52:03.507Z,7.10
2019-05-10T18:54:24.912Z,7.27
2019-05-10T18:56:54.231Z,5.80
2019-05-10T18:59:23.565Z,4.63
2019-05-10T19:01:53.052Z,4.90
2019-05-10T19:04:22.461Z,7.37
2019-05-10T19:07:01.365Z,6.13
2019-05-10T19:09:22.935Z,6.53
2019-05-10T19:11:52.225Z,8.17
2019-05-10T19:14:23.830Z,8.73
2019-05-10T19:16:52.710Z,8.33
2019-05-10T19:19:22.254Z,7.73
2019-05-10T19:21:51.544Z,7.70
2019-05-10T19:24:24.256Z,6.53
2019-05-10T19:26:53.235Z,9.97
2019-05-10T19:29:22.553Z,10.60
2019-05-10T19:31:51.908Z,10.00
2019-05-10T19:34:21.331Z,8.73
2019-05-10T19:36:50.721Z,8.30
2019-05-10T19:39:20.069Z,8.43
2019-05-10T19:41:51.624Z,9.93
2019-05-10T19:44:20.969Z,12.10
2019-05-10T19:46:50.441Z,13.07
2019-05-10T19:49:20.190Z,9.17
2019-05-10T19:51:50.445Z,9.10
2019-05-10T19:54:21.400Z,10.10
2019-05-10T19:56:50.796Z,8.20
2019-05-10T19:59:20.202Z,10.53
2019-05-10T20:01:49.544Z,8.23
2019-05-10T20:04:19.298Z,9.27
2019-05-10T20:06:48.726Z,12.43
2019-05-10T20:09:18.213Z,10.63
2019-05-10T20:11:47.730Z,12.30
2019-05-10T20:14:17.704Z,15.23
2019-05-10T20:16:53.537Z,12.43
2019-05-10T20:19:23.560Z,11.57
2019-05-10T20:21:53.642Z,12.10
2019-05-10T20:24:23.306Z,10.77
2019-05-10T20:26:52.735Z,12.10
2019-05-10T20:29:22.543Z,12.47
2019-05-10T20:31:52.292Z,10.90
2019-05-10T20:34:24.363Z,11.13
2019-05-10T20:36:57.920Z,12.27
2019-05-10T20:39:30.990Z,10.43
2019-05-10T20:42:01.441Z,12.47
2019-05-10T20:44:30.763Z,14.53
2019-05-10T20:47:01.019Z,14.13
2019-05-10T20:49:32.072Z,12.73
2019-05-10T20:52:03.702Z,11.53
2019-05-10T20:54:33.349Z,11.87
2019-05-10T20:57:02.858Z,11.37
2019-05-10T20:59:32.293Z,12.37
2019-05-10T21:02:01.493Z,16.77
2019-05-10T21:04:30.943Z,11.80
2019-05-10T21:07:00.224Z,14.27
2019-05-10T21:09:29.494Z,11.63
2019-05-10T21:11:58.703Z,12.13
2019-05-10T21:14:27.859Z,11.40
2019-05-10T21:16:57.053Z,14.00
2019-05-10T21:19:26.427Z,12.20
2019-05-10T21:21:55.923Z,13.23
2019-05-10T21:24:26.191Z,13.50
2019-05-10T21:26:55.533Z,13.10
2019-05-10T21:29:24.727Z,15.60
2019-05-10T21:31:54.015Z,11.80
2019-05-10T21:34:23.451Z,13.80
2019-05-10T21:36:52.831Z,15.97
2019-05-10T21:39:22.051Z,13.20
2019-05-10T21:41:51.295Z,14.90
2019-05-10T21:44:20.591Z,15.17
2019-05-10T21:46:53.456Z,15.03
2019-05-10T21:49:20.804Z,13.03
2019-05-10T21:51:50.057Z,15.53
2019-05-10T21:54:19.299Z,13.63
2019-05-10T21:56:48.505Z,12.53
2019-05-10T21:59:17.824Z,13.97
2019-05-10T22:01:47.201Z,14.97
2019-05-10T22:04:39.456Z,11.87
2019-05-10T22:07:08.956Z,10.57
2019-05-10T22:09:38.198Z,12.13
2019-05-10T22:12:07.622Z,10.20
2019-05-10T22:14:36.846Z,12.80
2019-05-10T22:17:06.112Z,12.43
2019-05-10T22:19:35.321Z,9.13
2019-05-10T22:22:04.611Z,8.40
2019-05-10T22:24:33.855Z,7.70
2019-05-10T22:27:03.105Z,6.80
2019-05-10T22:29:32.397Z,7.87
2019-05-10T22:32:01.804Z,6.73
2019-05-10T22:34:31.192Z,7.20
2019-05-10T22:37:09.428Z,8.30
2019-05-10T22:39:38.768Z,7.60
2019-05-10T22:42:07.982Z,7.33
2019-05-10T22:44:37.410Z,8.83
2019-05-10T22:47:06.615Z,8.40
2019-05-10T22:49:36.900Z,6.87
2019-05-10T22:52:06.104Z,10.03
2019-05-10T22:54:35.445Z,7.80
2019-05-10T22:57:04.796Z,8.60
2019-05-10T22:59:34.026Z,10.53
2019-05-10T23:02:03.307Z,6.17
2019-05-10T23:04:32.510Z,8.60
2019-05-10T23:07:01.694Z,8.33
2019-05-10T23:09:30.974Z,8.20
2019-05-10T23:12:00.267Z,8.97
2019-05-10T23:14:29.528Z,9.27
2019-05-10T23:16:58.833Z,8.80
2019-05-10T23:19:28.096Z,10.67
2019-05-10T23:21:57.476Z,7.60
2019-05-10T23:24:37.437Z,8.43
2019-05-10T23:27:07.219Z,8.03
2019-05-10T23:29:39.695Z,8.67
2019-05-10T23:32:09.099Z,9.73
2019-05-10T23:34:38.630Z,8.60
2019-05-10T23:37:07.972Z,9.80
2019-05-10T23:39:40.871Z,9.80
2019-05-10T23:42:08.218Z,9.30
2019-05-10T23:44:37.589Z,8.30
2019-05-10T23:47:06.913Z,9.30
2019-05-10T23:49:36.175Z,8.17
2019-05-10T23:52:05.509Z,8.20
2019-05-10T23:54:34.847Z,11.90
2019-05-10T23:57:04.090Z,7.93
2019-05-10T23:59:33.985Z,8.17
